Time;durP1;ratioP1;P1;durP2;ratioP2;P2;SDS_P1;SDS_P2;PMS_P1;PMS_P2;Temp;Humidity;BMP_temperature;BMP_pressure;BME280_temperature;BME280_humidity;BME280_pressure;Samples;Min_cycle;Max_cycle;Signal;HPM_P1;HPM_P2
2023/03/23 00:02:38;;;;;;;5.53;3.00;;;;;;;-145.50;100.00;65435.88;4910868;29;20084;-67
2023/03/23 00:05:07;;;;;;;5.00;2.63;;;;;;;-145.50;100.00;65435.88;4913468;29;20303;-66
2023/03/23 00:07:34;;;;;;;5.70;3.30;;;;;;;-145.50;100.00;65435.88;4888008;29;20059;-64
2023/03/23 00:10:02;;;;;;;6.88;2.95;;;;;;;-145.50;100.00;65435.88;4904028;29;20100;-65
2023/03/23 00:12:33;;;;;;;8.07;2.83;;;;;;;-145.50;100.00;65435.88;4912447;29;20048;-66
2023/03/23 00:15:07;;;;;;;9.32;3.30;;;;;;;-145.50;100.00;65435.88;4905796;29;20052;-65
2023/03/23 00:17:33;;;;;;;7.75;2.83;;;;;;;-145.50;100.00;65435.88;4912141;29;20409;-65
2023/03/23 00:20:00;;;;;;;8.07;3.45;;;;;;;-145.50;100.00;65435.88;4901281;29;20059;-64
2023/03/23 00:22:27;;;;;;;5.13;2.92;;;;;;;-145.50;100.00;65435.88;4910229;29;20059;-65
2023/03/23 00:24:53;;;;;;;6.97;3.40;;;;;;;-145.50;100.00;65435.88;4910470;29;20067;-64
2023/03/23 00:27:21;;;;;;;6.15;2.75;;;;;;;-145.50;100.00;65435.88;4904087;29;20059;-64
2023/03/23 00:29:47;;;;;;;5.53;3.03;;;;;;;-145.50;100.00;65435.88;4910533;29;20051;-64
2023/03/23 00:32:14;;;;;;;9.05;3.45;;;;;;;-145.50;100.00;65435.88;4900606;29;20069;-64
2023/03/23 00:34:41;;;;;;;6.93;3.30;;;;;;;-145.50;100.00;65435.88;4906987;29;20094;-65
2023/03/23 00:37:07;;;;;;;6.63;3.08;;;;;;;-145.50;100.00;65435.88;4898208;29;20059;-66
2023/03/23 00:39:33;;;;;;;6.25;3.10;;;;;;;-145.50;100.00;65435.88;4910967;29;20742;-65
2023/03/23 00:42:01;;;;;;;6.78;3.20;;;;;;;-145.50;100.00;65435.88;4910039;29;20146;-66
2023/03/23 00:44:30;;;;;;;6.80;3.08;;;;;;;-145.50;100.00;65435.88;4904104;29;20098;-65
2023/03/23 00:47:00;;;;;;;8.43;3.30;;;;;;;-145.50;100.00;65435.88;4906752;29;20501;-65
2023/03/23 00:49:26;;;;;;;8.35;2.70;;;;;;;-145.50;100.00;65435.88;4901113;29;20063;-64
2023/03/23 00:51:53;;;;;;;5.30;2.67;;;;;;;-145.50;100.00;65435.88;4908808;29;20764;-65
2023/03/23 00:54:20;;;;;;;8.60;2.63;;;;;;;-145.50;100.00;65435.88;4905113;29;20087;-65
2023/03/23 00:56:45;;;;;;;8.07;3.15;;;;;;;-145.50;100.00;65435.88;4909267;29;20071;-65
2023/03/23 00:59:11;;;;;;;9.52;3.10;;;;;;;-145.50;100.00;65435.88;4909211;29;20056;-66
2023/03/23 01:01:36;;;;;;;6.28;3.00;;;;;;;-145.50;100.00;65435.88;4895658;29;20242;-66
2023/03/23 01:04:03;;;;;;;4.50;2.80;;;;;;;-145.50;100.00;65435.88;4910212;29;20052;-65
2023/03/23 01:06:42;;;;;;;6.50;3.08;;;;;;;-145.50;100.00;65435.88;4900400;29;20120;-65
2023/03/23 01:09:10;;;;;;;4.25;2.83;;;;;;;-145.50;100.00;65435.88;4909847;29;20791;-65
2023/03/23 01:11:37;;;;;;;5.65;3.00;;;;;;;-145.50;100.00;65435.88;4904591;29;20075;-65
2023/03/23 01:14:03;;;;;;;4.90;2.65;;;;;;;-145.50;100.00;65435.88;4921458;29;20064;-63
2023/03/23 01:16:28;;;;;;;6.70;3.38;;;;;;;-145.50;100.00;65435.88;4906159;29;20131;-64
2023/03/23 01:18:54;;;;;;;4.45;2.67;;;;;;;-145.50;100.00;65435.88;4919140;29;20084;-64
2023/03/23 01:21:21;;;;;;;5.15;2.60;;;;;;;-145.50;100.00;65435.88;4908054;29;20535;-64
2023/03/23 01:23:48;;;;;;;4.53;2.72;;;;;;;-145.50;100.00;65435.88;4904092;29;20052;-65
2023/03/23 01:26:16;;;;;;;5.53;2.95;;;;;;;-145.50;100.00;65435.88;4908304;29;20130;-63
2023/03/23 01:28:42;;;;;;;6.07;2.90;;;;;;;-145.50;100.00;65435.88;4905463;29;20759;-64
2023/03/23 01:31:14;;;;;;;6.38;3.17;;;;;;;-145.50;100.00;65435.88;4895800;29;20920;-65
2023/03/23 01:33:41;;;;;;;9.00;3.85;;;;;;;-145.50;100.00;65435.88;4908916;29;20195;-65
2023/03/23 01:36:14;;;;;;;7.78;3.05;;;;;;;-145.50;100.00;65435.88;4901532;29;20099;-67
2023/03/23 01:38:42;;;;;;;8.63;3.53;;;;;;;-145.50;100.00;65435.88;4910657;29;20052;-66
2023/03/23 01:41:07;;;;;;;6.73;3.00;;;;;;;-145.50;100.00;65435.88;4902531;29;20079;-64
2023/03/23 01:43:33;;;;;;;5.75;2.65;;;;;;;-145.50;100.00;65435.88;4902000;29;20486;-65
2023/03/23 01:45:59;;;;;;;9.07;3.10;;;;;;;-145.50;100.00;65435.88;4910179;29;20059;-65
2023/03/23 01:48:29;;;;;;;8.88;2.50;;;;;;;-145.50;100.00;65435.88;4904312;29;20079;-65
2023/03/23 01:51:00;;;;;;;5.45;2.67;;;;;;;-145.50;100.00;65435.88;4922884;29;20494;-66
2023/03/23 01:53:32;;;;;;;4.80;3.25;;;;;;;-145.50;100.00;65435.88;4898882;29;20060;-65
2023/03/23 01:56:01;;;;;;;6.63;3.35;;;;;;;-145.50;100.00;65435.88;4900263;29;20115;-65
2023/03/23 01:58:31;;;;;;;5.38;2.95;;;;;;;-145.50;100.00;65435.88;4897440;29;20052;-64
2023/03/23 02:01:01;;;;;;;6.50;3.35;;;;;;;-145.50;100.00;65435.88;4910150;29;20067;-65
2023/03/23 02:03:28;;;;;;;6.88;3.50;;;;;;;-145.50;100.00;65435.88;4905257;29;20578;-65
2023/03/23 02:05:58;;;;;;;7.25;3.13;;;;;;;-145.50;100.00;65435.88;4907633;29;20108;-65
2023/03/23 02:08:26;;;;;;;7.45;3.45;;;;;;;-145.50;100.00;65435.88;4909969;29;20051;-65
2023/03/23 02:10:52;;;;;;;5.05;3.00;;;;;;;-145.50;100.00;65435.88;4899401;29;20075;-65
2023/03/23 02:13:18;;;;;;;5.95;3.30;;;;;;;-145.50;100.00;65435.88;4908356;29;20552;-64
2023/03/23 02:16:21;;;;;;;5.10;3.17;;;;;;;-145.50;100.00;65435.88;4903517;29;20406;-65
2023/03/23 02:19:10;;;;;;;4.72;3.22;;;;;;;-145.50;100.00;65435.88;4900940;29;20059;-64
2023/03/23 02:21:44;;;;;;;4.85;3.08;;;;;;;-145.50;100.00;65435.88;4877782;29;20519;-66
2023/03/23 02:24:41;;;;;;;5.80;2.90;;;;;;;-145.50;100.00;65435.88;4901981;29;20056;-65
2023/03/23 02:27:16;;;;;;;8.55;3.67;;;;;;;-145.50;100.00;65435.88;4889876;29;20405;-66
2023/03/23 02:30:00;;;;;;;6.07;3.40;;;;;;;-145.50;100.00;65435.88;4909049;29;20052;-65
2023/03/23 02:32:55;;;;;;;6.68;3.20;;;;;;;-145.50;100.00;65435.88;4906658;29;20119;-66
2023/03/23 02:35:44;;;;;;;7.45;3.38;;;;;;;-145.50;100.00;65435.88;4887497;29;20056;-64
2023/03/23 02:38:16;;;;;;;5.13;2.95;;;;;;;-145.50;100.00;65435.88;4896341;29;20353;-65
2023/03/23 02:40:46;;;;;;;5.65;3.10;;;;;;;-145.50;100.00;65435.88;4903878;29;20064;-65
2023/03/23 02:43:17;;;;;;;7.10;3.42;;;;;;;-145.50;100.00;65435.88;4907791;29;20056;-66
2023/03/23 02:45:45;;;;;;;4.60;3.00;;;;;;;-145.50;100.00;65435.88;4903594;29;20192;-64
2023/03/23 02:48:14;;;;;;;6.53;3.47;;;;;;;-145.50;100.00;65435.88;4908822;29;20051;-64
2023/03/23 02:50:43;;;;;;;4.22;2.80;;;;;;;-145.50;100.00;65435.88;4895390;29;20052;-65
2023/03/23 02:53:11;;;;;;;4.55;2.67;;;;;;;-145.50;100.00;65435.88;4892755;29;20052;-65
2023/03/23 02:55:41;;;;;;;8.43;3.35;;;;;;;-145.50;100.00;65435.88;4902209;29;20154;-66
2023/03/23 02:58:09;;;;;;;4.82;3.17;;;;;;;-145.50;100.00;65435.88;4909475;29;20066;-65
2023/03/23 03:00:35;;;;;;;5.28;3.13;;;;;;;-145.50;100.00;65435.88;4912450;29;20501;-66
2023/03/23 03:03:02;;;;;;;5.05;3.22;;;;;;;-145.50;100.00;65435.88;4904696;29;20055;-64
2023/03/23 03:05:50;;;;;;;6.28;3.60;;;;;;;-145.50;100.00;65435.88;4901224;29;20139;-65
2023/03/23 03:08:18;;;;;;;10.45;3.20;;;;;;;-145.50;100.00;65435.88;4901544;29;20134;-65
2023/03/23 03:11:15;;;;;;;6.15;3.50;;;;;;;-145.50;100.00;65435.88;4907414;29;20089;-65
2023/03/23 03:13:53;;;;;;;8.13;3.20;;;;;;;-145.50;100.00;65435.88;4902407;29;20116;-66
2023/03/23 03:16:44;;;;;;;5.90;3.17;;;;;;;-145.50;100.00;65435.88;4907814;29;20111;-65
2023/03/23 03:19:35;;;;;;;6.47;3.35;;;;;;;-145.50;100.00;65435.88;4891314;29;20779;-65
2023/03/23 03:22:01;;;;;;;6.25;3.42;;;;;;;-145.50;100.00;65435.88;4903552;29;20698;-65
2023/03/23 03:24:29;;;;;;;4.90;3.15;;;;;;;-145.50;100.00;65435.88;4896788;29;20056;-64
2023/03/23 03:26:59;;;;;;;5.10;3.00;;;;;;;-145.50;100.00;65435.88;4908666;29;20054;-65
2023/03/23 03:29:31;;;;;;;4.97;3.20;;;;;;;-145.50;100.00;65435.88;4898059;29;20052;-65
2023/03/23 03:31:59;;;;;;;4.72;2.92;;;;;;;-145.50;100.00;65435.88;4903497;29;20068;-64
2023/03/23 03:34:25;;;;;;;5.90;3.13;;;;;;;-145.50;100.00;65435.88;4904736;29;20076;-66
2023/03/23 03:36:53;;;;;;;5.50;3.00;;;;;;;-145.50;100.00;65435.88;4905156;29;20040;-65
2023/03/23 03:39:20;;;;;;;6.68;3.75;;;;;;;-145.50;100.00;65435.88;4912268;29;20070;-64
2023/03/23 03:41:46;;;;;;;6.30;3.33;;;;;;;-145.50;100.00;65435.88;4903543;29;20517;-65
2023/03/23 03:44:12;;;;;;;6.47;3.30;;;;;;;-145.50;100.00;65435.88;4894685;29;20056;-68
2023/03/23 03:46:37;;;;;;;10.82;3.38;;;;;;;-145.50;100.00;65435.88;4899685;29;20060;-68
2023/03/23 03:49:06;;;;;;;5.43;3.47;;;;;;;-145.50;100.00;65435.88;4909870;29;20059;-68
2023/03/23 03:51:33;;;;;;;5.40;3.15;;;;;;;-145.50;100.00;65435.88;4911935;29;20098;-68
2023/03/23 03:53:58;;;;;;;5.63;3.00;;;;;;;-145.50;100.00;65435.88;4889913;29;20064;-68
2023/03/23 03:56:24;;;;;;;7.03;3.75;;;;;;;-145.50;100.00;65435.88;4912928;29;20111;-68
2023/03/23 03:58:50;;;;;;;7.57;3.50;;;;;;;-145.50;100.00;65435.88;4903120;29;20074;-68
2023/03/23 04:01:17;;;;;;;5.45;3.00;;;;;;;-145.50;100.00;65435.88;4904387;29;20052;-68
2023/03/23 04:03:43;;;;;;;4.70;2.97;;;;;;;-145.50;100.00;65435.88;4909096;29;20075;-68
2023/03/23 04:06:09;;;;;;;4.90;3.17;;;;;;;-145.50;100.00;65435.88;4909222;29;20660;-67
2023/03/23 04:08:37;;;;;;;4.88;3.33;;;;;;;-145.50;100.00;65435.88;4911232;29;20074;-68
2023/03/23 04:11:03;;;;;;;5.75;3.20;;;;;;;-145.50;100.00;65435.88;4920645;29;20060;-68
2023/03/23 04:13:29;;;;;;;7.47;3.13;;;;;;;-145.50;100.00;65435.88;4898742;29;20524;-68
2023/03/23 04:15:55;;;;;;;6.78;3.22;;;;;;;-145.50;100.00;65435.88;4889967;29;20060;-68
2023/03/23 04:18:21;;;;;;;8.00;3.10;;;;;;;-145.50;100.00;65435.88;4912257;29;20073;-68
2023/03/23 04:20:48;;;;;;;5.97;3.00;;;;;;;-145.50;100.00;65435.88;4905381;29;20131;-67
2023/03/23 04:23:19;;;;;;;5.97;3.38;;;;;;;-145.50;100.00;65435.88;4911154;29;20064;-68
2023/03/23 04:25:46;;;;;;;5.97;2.92;;;;;;;-145.50;100.00;65435.88;4912088;29;20055;-68
2023/03/23 04:28:12;;;;;;;5.75;3.28;;;;;;;-145.50;100.00;65435.88;4884400;29;20131;-68
2023/03/23 04:30:38;;;;;;;7.53;3.92;;;;;;;-145.50;100.00;65435.88;4925205;29;20130;-68
2023/03/23 04:33:03;;;;;;;7.18;3.20;;;;;;;-145.50;100.00;65435.88;4904252;29;20108;-67
2023/03/23 04:35:29;;;;;;;7.95;3.22;;;;;;;-145.50;100.00;65435.88;4909711;29;20060;-67
2023/03/23 04:37:56;;;;;;;5.60;3.03;;;;;;;-145.50;100.00;65435.88;4911604;29;20048;-68
2023/03/23 04:40:22;;;;;;;4.90;2.85;;;;;;;-145.50;100.00;65435.88;4900635;29;20051;-67
2023/03/23 04:42:50;;;;;;;5.22;2.80;;;;;;;-145.50;100.00;65435.88;4907279;29;20519;-68
2023/03/23 04:45:21;;;;;;;7.40;2.92;;;;;;;-145.50;100.00;65435.88;4904045;29;20457;-68
2023/03/23 04:47:57;;;;;;;5.15;2.80;;;;;;;-145.50;100.00;65435.88;4904104;29;20112;-68
2023/03/23 04:50:33;;;;;;;6.55;3.13;;;;;;;-145.50;100.00;65435.88;4905267;29;20514;-68
2023/03/23 04:53:03;;;;;;;6.97;2.92;;;;;;;-145.50;100.00;65435.88;4911898;29;20143;-68
2023/03/23 04:55:37;;;;;;;7.07;2.75;;;;;;;-145.50;100.00;65435.88;4899733;29;20197;-68
2023/03/23 04:58:07;;;;;;;5.05;2.40;;;;;;;-145.50;100.00;65435.88;4904888;29;20063;-68
2023/03/23 05:00:33;;;;;;;4.50;2.33;;;;;;;-145.50;100.00;65435.88;4911096;29;20552;-68
2023/03/23 05:03:00;;;;;;;6.20;2.70;;;;;;;-145.50;100.00;65435.88;4904189;29;20054;-68
2023/03/23 05:05:27;;;;;;;4.07;2.25;;;;;;;-145.50;100.00;65435.88;4910084;29;20092;-68
2023/03/23 05:07:53;;;;;;;5.97;2.50;;;;;;;-145.50;100.00;65435.88;4902335;29;20509;-67
2023/03/23 05:10:18;;;;;;;7.57;2.13;;;;;;;-145.50;100.00;65435.88;4903345;29;20048;-68
2023/03/23 05:12:44;;;;;;;8.32;2.60;;;;;;;-145.50;100.00;65435.88;4903638;29;20052;-67
2023/03/23 05:15:12;;;;;;;7.30;1.90;;;;;;;-145.50;100.00;65435.88;4910461;29;20068;-67
2023/03/23 05:17:40;;;;;;;6.88;2.20;;;;;;;-145.50;100.00;65435.88;4911073;29;20059;-67
2023/03/23 05:20:09;;;;;;;8.05;2.15;;;;;;;-145.50;100.00;65435.88;4903947;29;20060;-68
2023/03/23 05:22:36;;;;;;;11.88;2.63;;;;;;;-145.50;100.00;65435.88;4897765;29;20367;-67
2023/03/23 05:25:04;;;;;;;10.15;2.10;;;;;;;-145.50;100.00;65435.88;4886323;29;20524;-68
2023/03/23 05:27:30;;;;;;;8.38;1.90;;;;;;;-145.50;100.00;65435.88;4909827;29;20059;-68
2023/03/23 05:29:58;;;;;;;7.97;1.90;;;;;;;-145.50;100.00;65435.88;4903975;29;20574;-68
2023/03/23 05:32:29;;;;;;;7.85;2.35;;;;;;;-145.50;100.00;65435.88;4909907;29;20059;-68
2023/03/23 05:35:02;;;;;;;7.15;1.85;;;;;;;-145.50;100.00;65435.88;4907730;29;20080;-68
2023/03/23 05:37:32;;;;;;;14.20;4.57;;;;;;;-145.50;100.00;65435.88;4897239;29;20138;-68
2023/03/23 05:40:01;;;;;;;8.65;1.95;;;;;;;-145.50;100.00;65435.88;4903099;29;20390;-67
2023/03/23 05:42:27;;;;;;;9.85;1.90;;;;;;;-145.50;100.00;65435.88;4902818;29;20063;-68
2023/03/23 05:44:53;;;;;;;6.90;1.83;;;;;;;-145.50;100.00;65435.88;4909994;29;20722;-68
2023/03/23 05:47:19;;;;;;;6.88;1.90;;;;;;;-145.50;100.00;65435.88;4903216;29;20056;-68
2023/03/23 05:49:44;;;;;;;8.05;2.08;;;;;;;-145.50;100.00;65435.88;4908486;29;20573;-67
2023/03/23 05:52:10;;;;;;;5.88;1.92;;;;;;;-145.50;100.00;65435.88;4902645;29;20063;-67
2023/03/23 05:54:35;;;;;;;5.63;1.60;;;;;;;-145.50;100.00;65435.88;4901093;29;20094;-68
2023/03/23 05:57:02;;;;;;;5.75;1.90;;;;;;;-145.50;100.00;65435.88;4909370;29;20077;-69
2023/03/23 05:59:28;;;;;;;5.15;1.58;;;;;;;-145.50;100.00;65435.88;4904399;29;20072;-69
2023/03/23 06:01:57;;;;;;;5.93;1.50;;;;;;;-145.50;100.00;65435.88;4910072;29;20055;-68
2023/03/23 06:04:24;;;;;;;7.90;1.80;;;;;;;-145.50;100.00;65435.88;4882735;29;20059;-68
2023/03/23 06:06:54;;;;;;;8.35;1.65;;;;;;;-145.50;100.00;65435.88;4905801;29;20098;-68
2023/03/23 06:09:20;;;;;;;7.22;1.80;;;;;;;-145.50;100.00;65435.88;4909279;29;20255;-68
2023/03/23 06:11:47;;;;;;;7.53;1.60;;;;;;;-145.50;100.00;65435.88;4903649;29;20056;-68
2023/03/23 06:14:13;;;;;;;7.15;1.60;;;;;;;-145.50;100.00;65435.88;4911034;29;20055;-68
2023/03/23 06:16:38;;;;;;;5.22;1.73;;;;;;;-145.50;100.00;65435.88;4903761;29;20108;-68
2023/03/23 06:19:04;;;;;;;5.13;1.70;;;;;;;-145.50;100.00;65435.88;4904778;29;20052;-69
2023/03/23 06:21:31;;;;;;;5.68;2.22;;;;;;;-145.50;100.00;65435.88;4899704;29;20496;-68
2023/03/23 06:23:59;;;;;;;6.00;1.83;;;;;;;-145.50;100.00;65435.88;4908973;29;20159;-68
2023/03/23 06:26:29;;;;;;;8.57;1.52;;;;;;;-145.50;100.00;65435.88;4908739;29;20052;-69
2023/03/23 06:28:55;;;;;;;5.70;1.65;;;;;;;-145.50;100.00;65435.88;4894528;29;20067;-69
2023/03/23 06:31:21;;;;;;;6.78;1.50;;;;;;;-145.50;100.00;65435.88;4909380;29;20056;-69
2023/03/23 06:33:47;;;;;;;6.80;1.60;;;;;;;-145.50;100.00;65435.88;4895428;29;20899;-69
2023/03/23 06:36:12;;;;;;;5.90;1.58;;;;;;;-145.50;100.00;65435.88;4907132;29;20060;-69
2023/03/23 06:38:38;;;;;;;4.07;1.60;;;;;;;-145.50;100.00;65435.88;4903602;29;20407;-68
2023/03/23 06:41:04;;;;;;;5.88;1.60;;;;;;;-145.50;100.00;65435.88;4922158;29;20067;-66
2023/03/23 06:43:30;;;;;;;4.90;1.90;;;;;;;-145.50;100.00;65435.88;4907901;29;20056;-69
2023/03/23 06:45:58;;;;;;;6.80;1.60;;;;;;;-145.50;100.00;65435.88;4893614;29;20096;-68
2023/03/23 06:48:24;;;;;;;8.25;1.98;;;;;;;-145.50;100.00;65435.88;4903657;29;20565;-68
2023/03/23 06:50:49;;;;;;;5.43;2.30;;;;;;;-145.50;100.00;65435.88;4902746;29;20059;-68
2023/03/23 06:53:16;;;;;;;7.70;1.63;;;;;;;-145.50;100.00;65435.88;4908330;29;20506;-69
2023/03/23 06:55:43;;;;;;;6.10;1.75;;;;;;;-145.50;100.00;65435.88;4901904;29;20056;-68
2023/03/23 06:58:10;;;;;;;9.25;2.40;;;;;;;-145.50;100.00;65435.88;4907932;29;20063;-69
2023/03/23 07:00:35;;;;;;;7.25;1.90;;;;;;;-145.50;100.00;65435.88;4905315;29;20079;-69
2023/03/23 07:03:01;;;;;;;6.30;1.73;;;;;;;-145.50;100.00;65435.88;4897268;29;20094;-69
2023/03/23 07:05:26;;;;;;;6.47;1.73;;;;;;;-145.50;100.00;65435.88;4908653;29;20513;-69
2023/03/23 07:07:53;;;;;;;5.75;1.50;;;;;;;-145.50;100.00;65435.88;4899353;29;20056;-69
2023/03/23 07:10:18;;;;;;;9.48;2.33;;;;;;;-145.50;100.00;65435.88;4907883;29;20104;-69
2023/03/23 07:12:44;;;;;;;8.98;2.00;;;;;;;-145.50;100.00;65435.88;4907710;29;20505;-69
2023/03/23 07:15:10;;;;;;;7.82;1.80;;;;;;;-145.50;100.00;65435.88;4896712;29;20055;-68
2023/03/23 07:17:39;;;;;;;7.05;1.80;;;;;;;-145.50;100.00;65435.88;4905024;29;20424;-67
2023/03/23 07:20:06;;;;;;;7.68;1.73;;;;;;;-145.50;100.00;65435.88;4902558;29;20082;-68
2023/03/23 07:22:32;;;;;;;10.02;1.90;;;;;;;-145.50;100.00;65435.88;4909466;29;20066;-68
2023/03/23 07:24:58;;;;;;;10.50;1.88;;;;;;;-145.50;100.00;65435.88;4898721;29;20068;-68
2023/03/23 07:27:24;;;;;;;6.93;1.63;;;;;;;-145.50;100.00;65435.88;4905277;29;20556;-67
2023/03/23 07:29:50;;;;;;;7.78;2.08;;;;;;;-145.50;100.00;65435.88;4902663;29;20299;-68
2023/03/23 07:32:16;;;;;;;6.03;1.60;;;;;;;-145.50;100.00;65435.88;4901717;29;20072;-68
2023/03/23 07:34:42;;;;;;;6.55;2.15;;;;;;;-145.50;100.00;65435.88;4907822;29;20056;-68
2023/03/23 07:37:08;;;;;;;7.85;2.00;;;;;;;-145.50;100.00;65435.88;4899556;29;20059;-72
2023/03/23 07:39:34;;;;;;;5.32;1.70;;;;;;;-145.50;100.00;65435.88;4909200;29;20044;-71
2023/03/23 07:42:00;;;;;;;7.63;1.50;;;;;;;-145.50;100.00;65435.88;4898519;29;20048;-69
2023/03/23 07:44:26;;;;;;;1.95;1.05;;;;;;;-145.50;100.00;65435.88;4902467;29;20056;-69
2023/03/23 07:46:51;;;;;;;3.70;1.15;;;;;;;-145.50;100.00;65435.88;4907492;29;20425;-68
2023/03/23 07:49:17;;;;;;;6.82;1.73;;;;;;;-145.50;100.00;65435.88;4903502;29;20052;-68
2023/03/23 07:51:44;;;;;;;7.40;1.48;;;;;;;-145.50;100.00;65435.88;4914546;29;20052;-68
2023/03/23 07:54:10;;;;;;;6.47;1.70;;;;;;;-145.50;100.00;65435.88;4901811;29;20620;-68
2023/03/23 07:56:36;;;;;;;4.60;1.65;;;;;;;-145.50;100.00;65435.88;4897191;29;20076;-68
2023/03/23 07:59:05;;;;;;;3.30;1.40;;;;;;;-145.50;100.00;65435.88;4899318;29;20505;-68
2023/03/23 08:01:31;;;;;;;4.22;1.40;;;;;;;-145.50;100.00;65435.88;4908172;29;20761;-69
2023/03/23 08:03:57;;;;;;;3.95;1.23;;;;;;;-145.50;100.00;65435.88;4904963;29;20151;-70
2023/03/23 08:06:23;;;;;;;8.48;1.40;;;;;;;-145.50;100.00;65435.88;4908092;29;20135;-69
2023/03/23 08:08:50;;;;;;;4.82;1.30;;;;;;;-145.50;100.00;65435.88;4902110;29;20919;-67
2023/03/23 08:11:18;;;;;;;8.23;1.80;;;;;;;-145.50;100.00;65435.88;4898298;29;20052;-67
2023/03/23 08:13:44;;;;;;;7.97;1.70;;;;;;;-145.50;100.00;65435.88;4909173;29;20095;-66
2023/03/23 08:16:09;;;;;;;6.72;2.40;;;;;;;-145.50;100.00;65435.88;4903661;29;20067;-67
2023/03/23 08:18:36;;;;;;;5.80;1.40;;;;;;;-145.50;100.00;65435.88;4909116;29;20055;-67
2023/03/23 08:21:08;;;;;;;7.88;1.75;;;;;;;-145.50;100.00;65435.88;4913188;29;20044;-67
2023/03/23 08:23:34;;;;;;;8.88;1.85;;;;;;;-145.50;100.00;65435.88;4901951;29;20063;-67
2023/03/23 08:26:00;;;;;;;9.07;2.03;;;;;;;-145.50;100.00;65435.88;4897931;29;20139;-69
2023/03/23 08:28:26;;;;;;;8.00;2.15;;;;;;;-145.50;100.00;65435.88;4906364;29;20048;-69
2023/03/23 08:30:51;;;;;;;7.30;2.30;;;;;;;-145.50;100.00;65435.88;4913063;29;20041;-69
2023/03/23 08:33:17;;;;;;;6.35;2.20;;;;;;;-145.50;100.00;65435.88;4901125;29;20542;-69
2023/03/23 08:35:43;;;;;;;9.18;2.03;;;;;;;-145.50;100.00;65435.88;4908486;29;20124;-69
2023/03/23 08:38:13;;;;;;;5.63;1.65;;;;;;;-145.50;100.00;65435.88;4911135;29;20794;-69
2023/03/23 08:40:39;;;;;;;7.53;1.58;;;;;;;-145.50;100.00;65435.88;4906069;29;20488;-69
2023/03/23 08:43:04;;;;;;;9.20;2.15;;;;;;;-145.50;100.00;65435.88;4912997;29;20055;-70
2023/03/23 08:45:30;;;;;;;6.22;1.65;;;;;;;-145.50;100.00;65435.88;4906831;29;20429;-69
2023/03/23 08:47:56;;;;;;;5.50;1.63;;;;;;;-145.50;100.00;65435.88;4906233;29;20184;-70
2023/03/23 08:50:26;;;;;;;7.85;1.67;;;;;;;-145.50;100.00;65435.88;4901514;29;20089;-69
2023/03/23 08:52:53;;;;;;;5.85;1.38;;;;;;;-145.50;100.00;65435.88;4912257;29;20040;-69
2023/03/23 08:55:21;;;;;;;4.72;1.13;;;;;;;-145.50;100.00;65435.88;4912510;29;20117;-69
2023/03/23 08:57:47;;;;;;;5.68;1.50;;;;;;;-145.50;100.00;65435.88;4905955;29;20051;-69
2023/03/23 09:00:19;;;;;;;3.65;1.23;;;;;;;-145.50;100.00;65435.88;4911212;29;20145;-69
2023/03/23 09:02:49;;;;;;;4.35;1.33;;;;;;;-145.50;100.00;65435.88;4906160;29;20545;-69
2023/03/23 09:05:16;;;;;;;5.15;1.25;;;;;;;-145.50;100.00;65435.88;4911268;29;20048;-69
2023/03/23 09:07:45;;;;;;;5.75;1.40;;;;;;;-145.50;100.00;65435.88;4904905;29;20052;-69
2023/03/23 09:10:12;;;;;;;4.50;1.50;;;;;;;-145.50;100.00;65435.88;4912166;29;20595;-69
2023/03/23 09:12:38;;;;;;;4.03;1.50;;;;;;;-145.50;100.00;65435.88;4904691;29;20052;-70
2023/03/23 09:15:08;;;;;;;4.13;1.33;;;;;;;-145.50;100.00;65435.88;4908635;29;20446;-70
2023/03/23 09:17:36;;;;;;;3.35;1.10;;;;;;;-145.50;100.00;65435.88;4912223;29;20093;-70
2023/03/23 09:20:06;;;;;;;3.00;0.90;;;;;;;-145.50;100.00;65435.88;4906611;29;20079;-69
2023/03/23 09:22:32;;;;;;;3.08;0.90;;;;;;;-145.50;100.00;65435.88;4908510;29;20052;-69
2023/03/23 09:24:57;;;;;;;6.32;1.00;;;;;;;-145.50;100.00;65435.88;4898205;29;20079;-68
2023/03/23 09:27:23;;;;;;;2.88;0.82;;;;;;;-145.50;100.00;65435.88;4906881;29;20112;-68
2023/03/23 09:29:48;;;;;;;5.30;1.10;;;;;;;-145.50;100.00;65435.88;4910183;29;20063;-69
2023/03/23 09:32:15;;;;;;;5.07;1.15;;;;;;;-145.50;100.00;65435.88;4905808;29;20087;-68
2023/03/23 09:34:41;;;;;;;5.20;1.17;;;;;;;-145.50;100.00;65435.88;4909384;29;20055;-69
2023/03/23 09:37:06;;;;;;;6.68;1.30;;;;;;;-145.50;100.00;65435.88;4906796;29;20382;-69
2023/03/23 09:39:31;;;;;;;7.32;1.70;;;;;;;-145.50;100.00;65435.88;4907694;29;20112;-69
2023/03/23 09:42:06;;;;;;;4.80;1.15;;;;;;;-145.50;100.00;65435.88;4905094;29;20413;-69
2023/03/23 09:44:37;;;;;;;5.35;0.93;;;;;;;-145.50;100.00;65435.88;4911156;29;20059;-69
2023/03/23 09:47:36;;;;;;;11.05;1.52;;;;;;;-145.50;100.00;65435.88;4909509;29;20386;-68
2023/03/23 09:50:11;;;;;;;4.20;1.23;;;;;;;-145.50;100.00;65435.88;4910285;29;20155;-69
2023/03/23 09:52:43;;;;;;;6.22;1.10;;;;;;;-145.50;100.00;65435.88;4904718;29;20052;-68
2023/03/23 09:55:15;;;;;;;7.68;1.80;;;;;;;-145.50;100.00;65435.88;4904145;29;20075;-69
2023/03/23 09:58:02;;;;;;;9.23;1.60;;;;;;;-145.50;100.00;65435.88;4907434;29;20078;-69
2023/03/23 10:00:39;;;;;;;3.55;1.10;;;;;;;-145.50;100.00;65435.88;4902515;29;20143;-69
2023/03/23 10:03:15;;;;;;;8.70;1.60;;;;;;;-145.50;100.00;65435.88;4912027;29;20104;-69
2023/03/23 10:05:53;;;;;;;11.55;1.80;;;;;;;-145.50;100.00;65435.88;4896004;29;20063;-69
2023/03/23 10:08:30;;;;;;;5.20;1.60;;;;;;;-145.50;100.00;65435.88;4907095;29;20107;-69
2023/03/23 10:11:05;;;;;;;11.30;1.80;;;;;;;-145.50;100.00;65435.88;4904783;29;20052;-69
2023/03/23 10:13:58;;;;;;;10.23;1.42;;;;;;;-145.50;100.00;65435.88;4911377;29;20483;-69
2023/03/23 10:16:31;;;;;;;6.90;1.55;;;;;;;-145.50;100.00;65435.88;4904778;29;20551;-69
2023/03/23 10:19:17;;;;;;;9.05;2.33;;;;;;;-145.50;100.00;65435.88;4906358;29;20135;-69
2023/03/23 10:21:59;;;;;;;8.23;1.60;;;;;;;-145.50;100.00;65435.88;4898840;29;20048;-69
2023/03/23 10:24:40;;;;;;;7.10;1.70;;;;;;;-145.50;100.00;65435.88;4909558;29;20056;-68
2023/03/23 10:27:21;;;;;;;5.20;1.40;;;;;;;-145.50;100.00;65435.88;4906122;29;20059;-68
2023/03/23 10:29:58;;;;;;;8.77;1.75;;;;;;;-145.50;100.00;65435.88;4910270;29;20044;-69
2023/03/23 10:32:41;;;;;;;7.78;1.83;;;;;;;-145.50;100.00;65435.88;4911120;29;20607;-69
2023/03/23 10:35:13;;;;;;;11.43;1.90;;;;;;;-145.50;100.00;65435.88;4896818;29;20139;-69
2023/03/23 10:37:45;;;;;;;10.20;1.80;;;;;;;-145.50;100.00;65435.88;4904149;29;20070;-69
2023/03/23 10:40:21;;;;;;;10.25;2.05;;;;;;;-145.50;100.00;65435.88;4904704;29;20048;-68
2023/03/23 10:42:47;;;;;;;9.95;1.52;;;;;;;-145.50;100.00;65435.88;4904178;29;20417;-68
2023/03/23 10:45:26;;;;;;;8.80;2.00;;;;;;;-145.50;100.00;65435.88;4904072;29;20568;-68
2023/03/23 10:48:00;;;;;;;9.15;1.95;;;;;;;-145.50;100.00;65435.88;4905061;29;20142;-68
2023/03/23 10:50:34;;;;;;;11.15;2.15;;;;;;;-145.50;100.00;65435.88;4899880;29;20052;-67
2023/03/23 10:53:00;;;;;;;9.20;2.05;;;;;;;-145.50;100.00;65435.88;4909696;29;20060;-68
2023/03/23 10:55:38;;;;;;;10.10;1.95;;;;;;;-145.50;100.00;65435.88;4909513;29;20052;-68
2023/03/23 10:58:12;;;;;;;6.80;1.80;;;;;;;-145.50;100.00;65435.88;4909006;29;20579;-67
2023/03/23 11:00:47;;;;;;;6.88;2.08;;;;;;;-145.50;100.00;65435.88;4908845;29;20044;-67
2023/03/23 11:03:18;;;;;;;7.65;1.63;;;;;;;-145.50;100.00;65435.88;4891084;29;20068;-67
2023/03/23 11:05:58;;;;;;;7.93;1.92;;;;;;;-145.50;100.00;65435.88;4908072;29;20055;-68
2023/03/23 11:08:34;;;;;;;11.48;1.98;;;;;;;-145.50;100.00;65435.88;4903132;29;20060;-68
2023/03/23 11:11:18;;;;;;;7.28;1.70;;;;;;;-145.50;100.00;65435.88;4909331;29;20599;-67
2023/03/23 11:13:47;;;;;;;6.65;1.83;;;;;;;-145.50;100.00;65435.88;4901029;29;20567;-67
2023/03/23 11:16:28;;;;;;;7.22;1.90;;;;;;;-145.50;100.00;65435.88;4905214;29;20064;-68
2023/03/23 11:18:55;;;;;;;6.85;1.83;;;;;;;-145.50;100.00;65435.88;4898925;29;20112;-67
2023/03/23 11:21:23;;;;;;;7.57;2.03;;;;;;;-145.50;100.00;65435.88;4910043;29;20492;-67